sensor_id;sensor_type;location;lat;lon;timestamp;pressure;altitude;pressure_sealevel;temperature;humidity
71642;BME280;60657;50.122;14.468;2023-04-01T00:33:52;96616.07167825673;;;10.908674753948269;74.07171740291447
71642;BME280;60657;50.122;14.468;2023-04-01T00:36:57;96610.4072476428;;;10.825894560158694;73.95345998321507
71642;BME280;60657;50.122;14.468;2023-04-01T00:40:02;96614.61643826636;;;10.849927519645988;73.91340505073624
71642;BME280;60657;50.122;14.468;2023-04-01T00:43:10;96616.2912619418;;;10.825894560158694;74.01068131532769
71642;BME280;60657;50.122;14.468;2023-04-01T00:46:19;96610.5388074285;;;10.812542915999082;74.12512397955291
71642;BME280;60657;50.122;14.468;2023-04-01T00:49:24;96623.03360034195;;;10.80453192950332;73.86762798504616
71642;BME280;60657;50.122;14.468;2023-04-01T00:52:33;96613.24634404013;;;10.687037460898758;74.35019455252919
71642;BME280;60657;50.122;14.468;2023-04-01T00:55:39;96620.8022621607;;;10.687037460898758;74.29106584267949
71642;BME280;60657;50.122;14.468;2023-04-01T00:58:50;96620.19994271845;;;10.580224307621883;74.60196841382468
71642;BME280;60657;50.122;14.468;2023-04-01T01:02:01;96608.0070981627;;;10.529488059815364;74.9071488517586
71642;BME280;60657;50.122;14.468;2023-04-01T01:05:07;96610.41177953668;;;10.510795757991914;74.93194476234073
71642;BME280;60657;50.122;14.468;2023-04-01T01:08:16;96612.16980832317;;;10.564202334630352;74.97199969481956
71642;BME280;60657;50.122;14.468;2023-04-01T01:11:35;96612.33755098804;;;10.473411154345008;75.27718013275349
71642;BME280;60657;50.122;14.468;2023-04-01T01:14:49;96616.54128435312;;;10.457389181353477;75.25429159990844
71642;BME280;60657;50.122;14.468;2023-04-01T01:18:03;96609.80673603324;;;10.500114442664227;75.28290226596475
71642;BME280;60657;50.122;14.468;2023-04-01T01:25:04;96618.13122651818;;;10.433356221866177;75.36110475318532
71642;BME280;60657;50.122;14.468;2023-04-01T01:28:33;96619.76277937929;;;10.457389181353477;75.44502937361715
71642;BME280;60657;50.122;14.468;2023-04-01T01:31:50;96611.48002599513;;;10.43869687953002;75.44502937361715
71642;BME280;60657;50.122;14.468;2023-04-01T01:35:14;96613.92719018388;;;10.486762798504614;75.35538261997407
71642;BME280;60657;50.122;14.468;2023-04-01T01:38:26;96617.96391567863;;;10.508125429159989;75.19325551232166
71642;BME280;60657;50.122;14.468;2023-04-01T01:41:35;96606.46005245505;;;10.473411154345008;75.31914244296941
71642;BME280;60657;50.122;14.468;2023-04-01T01:44:49;96623.84172679053;;;10.52414740215152;75.2600137331197
71642;BME280;60657;50.122;14.468;2023-04-01T01:47:58;96619.76277937929;;;10.484092469672696;75.4087891966125
71642;BME280;60657;50.122;14.468;2023-04-01T01:51:06;96612.4209089938;;;10.42267490653849;75.43167772945755
71642;BME280;60657;50.122;14.468;2023-04-01T01:54:12;96619.92879353395;;;10.36125734340429;75.70443274586098
71642;BME280;60657;50.122;14.468;2023-04-01T01:57:19;96619.92879353395;;;10.436026550698102;75.45456626230259
71642;BME280;60657;50.122;14.468;2023-04-01T02:00:29;96605.97792731966;;;10.382619974059665;75.66819256885634
71642;BME280;60657;50.122;14.468;2023-04-01T02:03:35;96614.0524096354;;;10.366598001068134;75.88563363088426
71642;BME280;60657;50.122;14.468;2023-04-01T02:06:46;96616.05512709498;;;10.315861753261615;76.18127718013275
71642;BME280;60657;50.122;14.468;2023-04-01T02:09:57;96611.93510315513;;;10.286488136110478;76.47882810711833
71642;BME280;60657;50.122;14.468;2023-04-01T02:13:03;96607.04028082466;;;10.270466163118947;76.72106507972839
71642;BME280;60657;50.122;14.468;2023-04-01T02:16:18;96608.58997367203;;;10.286488136110478;76.52269779507134
71642;BME280;60657;50.122;14.468;2023-04-01T02:19:29;96607.77419355523;;;10.307850766765853;76.78782330052644
71642;BME280;60657;50.122;14.468;2023-04-01T02:22:43;96612.79178654999;;;10.323872739757384;76.72869459067674
71642;BME280;60657;50.122;14.468;2023-04-01T02:25:53;96609.52850577759;;;10.289158464942396;76.90608072022583
71642;BME280;60657;50.122;14.468;2023-04-01T02:28:58;96612.83256766335;;;10.235751888303959;76.95757991912718
71642;BME280;60657;50.122;14.468;2023-04-01T02:32:06;96612.83256766335;;;10.265125505455103;77.03196765087358
71642;BME280;60657;50.122;14.468;2023-04-01T02:35:14;96617.84964733341;;;10.273136491950865;77.03959716182193
71642;BME280;60657;50.122;14.468;2023-04-01T02:38:21;96617.80906866796;;;10.273136491950865;77.15022507057297
71642;BME280;60657;50.122;14.468;2023-04-01T02:41:26;96630.20998685806;;;10.299839780270084;76.81452658884565
71642;BME280;60657;50.122;14.468;2023-04-01T02:44:30;96631.26696008544;;;10.201037613488978;77.2341496910048
71642;BME280;60657;50.122;14.468;2023-04-01T02:47:40;96641.13941726086;;;10.246433203631646;77.31998168917373
71642;BME280;60657;50.122;14.468;2023-04-01T02:50:47;96631.80145736471;;;10.270466163118947;77.03768978408485
71642;BME280;60657;50.122;14.468;2023-04-01T02:53:51;96645.37879900764;;;10.177004654001678;77.31998168917373
71642;BME280;60657;50.122;14.468;2023-04-01T02:56:56;96643.50778292686;;;10.25978484779126;77.21507591363394
71642;BME280;60657;50.122;14.468;2023-04-01T03:00:00;96647.7081310393;;;10.270466163118947;77.15785458152132
71642;BME280;60657;50.122;14.468;2023-04-01T03:03:06;96646.23446222965;;;10.168993667505916;77.4248874647135
71642;BME280;60657;50.122;14.468;2023-04-01T03:06:12;96652.06588032882;;;10.168993667505916;77.26657511253529
71642;BME280;60657;50.122;14.468;2023-04-01T03:09:18;96654.39621965449;;;10.246433203631646;77.25322346837568
71642;BME280;60657;50.122;14.468;2023-04-01T03:12:23;96660.22816916628;;;10.185015640497447;77.23796444647898
71642;BME280;60657;50.122;14.468;2023-04-01T03:15:27;96662.71628374359;;;10.21705958648051;77.1025406271458
71642;BME280;60657;50.122;14.468;2023-04-01T03:18:32;96667.53505441097;;;10.25978484779126;76.822156099794
71642;BME280;60657;50.122;14.468;2023-04-01T03:21:36;96658.51680500689;;;10.243762874799728;76.97665369649805
71642;BME280;60657;50.122;14.468;2023-04-01T03:24:41;96659.41192345298;;;10.23308155947204;76.85839627679866
71642;BME280;60657;50.122;14.468;2023-04-01T03:27:45;96665.12572196567;;;10.262455176623178;76.82024872205692
71642;BME280;60657;50.122;14.468;2023-04-01T03:30:50;96665.78357525554;;;10.299839780270084;76.62378881513695
71642;BME280;60657;50.122;14.468;2023-04-01T03:33:54;96669.20711876996;;;10.345235370412759;76.56466010528725
71642;BME280;60657;50.122;14.468;2023-04-01T03:36:59;96665.12572196567;;;10.273136491950865;76.43686579690242
71642;BME280;60657;50.122;14.468;2023-04-01T03:40:04;96670.06284528057;;;10.310521095597771;76.43686579690242
71642;BME280;60657;50.122;14.468;2023-04-01T03:43:09;96674.02569996855;;;10.347905699244677;76.1736476691844
71642;BME280;60657;50.122;14.468;2023-04-01T03:46:16;96681.45186972072;;;10.350576028076603;76.08972304875257
71642;BME280;60657;50.122;14.468;2023-04-01T03:49:21;96677.37019266827;;;10.331883726253146;75.94857709620813
71642;BME280;60657;50.122;14.468;2023-04-01T03:52:26;96678.02756193432;;;10.409323262378884;75.72159914549478
71642;BME280;60657;50.122;14.468;2023-04-01T03:55:30;96679.7398433526;;;10.417334248874646;75.72922865644313
71642;BME280;60657;50.122;14.468;2023-04-01T03:58:35;96678.80389512658;;;10.382619974059665;75.76356145571069
71642;BME280;60657;50.122;14.468;2023-04-01T04:01:41;96687.82335611331;;;10.425345235370415;75.65484092469673
71642;BME280;60657;50.122;14.468;2023-04-01T04:04:46;96683.24237344587;;;10.281147478446634;75.88944838635844
71642;BME280;60657;50.122;14.468;2023-04-01T04:07:50;96682.22855990418;;;10.313191424429696;75.53086137178607
71642;BME280;60657;50.122;14.468;2023-04-01T04:10:56;96685.61276853929;;;10.182345311665522;75.80170901045243
71642;BME280;60657;50.122;14.468;2023-04-01T04:14:00;96688.99648352255;;;10.329213397421228;75.79026474402991
71642;BME280;60657;50.122;14.468;2023-04-01T04:17:05;96686.58641867779;;;10.23308155947204;75.49462119478142
71642;BME280;60657;50.122;14.468;2023-04-01T04:20:09;96688.99648352255;;;10.350576028076603;75.35728999771115
71642;BME280;60657;50.122;14.468;2023-04-01T04:23:14;96696.46207820474;;;10.307850766765853;75.50415808346685
71642;BME280;60657;50.122;14.468;2023-04-01T04:26:19;96701.43915201261;;;10.382619974059665;75.40497444113832
71642;BME280;60657;50.122;14.468;2023-04-01T04:29:24;96698.32811955446;;;10.283817807278552;75.55374990463112
71642;BME280;60657;50.122;14.468;2023-04-01T04:32:29;96698.09505368929;;;10.374608987563896;75.36301213092241
71642;BME280;60657;50.122;14.468;2023-04-01T04:35:34;96698.01668120107;;;10.339894712748915;75.2314030670634
71642;BME280;60657;50.122;14.468;2023-04-01T04:38:38;96703.92769212244;;;10.305180437933927;75.0120546272984
71642;BME280;60657;50.122;14.468;2023-04-01T04:41:43;96704.62710506124;;;10.39597161821927;75.0845349813077
71642;BME280;60657;50.122;14.468;2023-04-01T04:44:47;96705.36509371478;;;10.417334248874646;74.9224078736553
71642;BME280;60657;50.122;14.468;2023-04-01T04:47:52;96708.5917203009;;;10.44670786602579;74.84039063096056
71642;BME280;60657;50.122;14.468;2023-04-01T10:19:53;96810.49357431635;;;12.732509346150913;62.03807125963226
71642;BME280;60657;50.122;14.468;2023-04-01T10:23:33;96788.82549457575;;;12.769893949797819;62.015182726787216
71642;BME280;60657;50.122;14.468;2023-04-01T10:27:02;96796.2186561522;;;12.791256580453194;62.27267872129397
71642;BME280;60657;50.122;14.468;2023-04-01T10:30:34;96793.76281180923;;;13.068970778973068;62.37376974135958
71642;BME280;60657;50.122;14.468;2023-04-01T10:34:09;96784.76136522897;;;13.303959716182192;62.284122987716486
71642;BME280;60657;50.122;14.468;2023-04-01T10:40:23;96787.96978774107;;;13.31197070267796;59.92851148241398
71642;BME280;60657;50.122;14.468;2023-04-01T10:44:03;96780.79714534406;;;13.472190432593273;59.29907682917525
71642;BME280;60657;50.122;14.468;2023-04-01T10:47:37;96788.6551692886;;;13.843366140230408;58.74975204089418
71642;BME280;60657;50.122;14.468;2023-04-01T10:51:29;96782.32361173257;;;13.98489356832227;58.526588845655
71642;BME280;60657;50.122;14.468;2023-04-01T10:55:01;96776.50597082941;;;14.15579461356527;58.56855115587091
71642;BME280;60657;50.122;14.468;2023-04-01T10:58:59;96784.09584390707;;;14.588387884336612;57.95628290226596
71642;BME280;60657;50.122;14.468;2023-04-01T11:02:30;96771.3263014235;;;14.639124132143131;56.45326924544137
71642;BME280;60657;50.122;14.468;2023-04-01T11:06:24;96783.52340036359;;;14.481574731059737;57.458457312886246
71642;BME280;60657;50.122;14.468;2023-04-01T11:12:06;96774.19791776178;;;14.484245059891663;57.08842603189136
71642;BME280;60657;50.122;14.468;2023-04-01T11:19:56;96778.24032955717;;;14.235904478522926;57.91622796978714
71642;BME280;60657;50.122;14.468;2023-04-01T11:23:22;96784.53880348957;;;13.720531013962002;58.40070191500725
71642;BME280;60657;50.122;14.468;2023-04-01T11:26:51;96781.33623198942;;;13.939497978179595;58.49797817959869
71642;BME280;60657;50.122;14.468;2023-04-01T11:30:16;96773.86690586145;;;14.430838483253225;58.457923247119865
71642;BME280;60657;50.122;14.468;2023-04-01T11:33:35;96776.43123468051;;;14.26527809567407;57.019760433356225
71642;BME280;60657;50.122;14.468;2023-04-01T11:36:54;96782.26907281198;;;14.097047379262989;57.51949340047303
71642;BME280;60657;50.122;14.468;2023-04-01T11:40:14;96777.26217833887;;;14.147783627069508;58.12985427634089
71642;BME280;60657;50.122;14.468;2023-04-01T11:43:34;96781.80427241755;;;14.046311131456477;58.122224765392545
71642;BME280;60657;50.122;14.468;2023-04-01T11:46:54;96780.11617144493;;;14.110399023422602;58.67536430914778
71642;BME280;60657;50.122;14.468;2023-04-01T11:50:20;96778.41909846259;;;14.286640726329445;57.99252307927062
71642;BME280;60657;50.122;14.468;2023-04-01T11:53:38;96781.85655347066;;;14.259937438010226;58.000152590218974
71642;BME280;60657;50.122;14.468;2023-04-01T11:56:58;96775.6164688339;;;14.38544289311055;57.69687953002212
71642;BME280;60657;50.122;14.468;2023-04-01T12:00:51;96783.52340036359;;;14.454871442740519;56.87289234760052
71642;BME280;60657;50.122;14.468;2023-04-01T12:04:29;96783.94404045558;;;14.361409933623257;57.34592202639811
71642;BME280;60657;50.122;14.468;2023-04-01T12:07:53;96781.91574584473;;;14.193179217212176;57.39551384756237
71642;BME280;60657;50.122;14.468;2023-04-01T12:11:12;96787.73827836938;;;14.219882505531395;58.1145952544442
71642;BME280;60657;50.122;14.468;2023-04-01T12:14:27;96792.45022593107;;;14.29999237048905;58.61623559929808
71642;BME280;60657;50.122;14.468;2023-04-01T12:17:45;96789.73815926473;;;14.585717555504694;57.52903028915846
71642;BME280;60657;50.122;14.468;2023-04-01T12:21:02;96794.23647335486;;;14.502937361715112;57.51758602273594
71642;BME280;60657;50.122;14.468;2023-04-01T12:24:29;96793.60226403942;;;14.473563744563975;57.95437552452888
71642;BME280;60657;50.122;14.468;2023-04-01T12:27:53;96803.39983293436;;;14.2572671091783;58.20042725261311
71642;BME280;60657;50.122;14.468;2023-04-01T12:31:23;96808.92762281145;;;14.40947585259785;58.60288395513848
71642;BME280;60657;50.122;14.468;2023-04-01T12:34:47;96805.19078069768;;;14.473563744563975;58.21568627450981
71642;BME280;60657;50.122;14.468;2023-04-01T12:38:12;96805.34092543603;;;14.612420843823912;57.59578850995651
71642;BME280;60657;50.122;14.468;2023-04-01T12:41:29;96791.008868624;;;14.906157015335317;57.15136949721523
71642;BME280;60657;50.122;14.468;2023-04-01T12:44:49;96799.59161624107;;;14.988937209124892;56.40558480201419
71642;BME280;60657;50.122;14.468;2023-04-01T12:48:45;96784.46603607897;;;15.25329976348516;55.114290074006256
71642;BME280;60657;50.122;14.468;2023-04-01T12:52:11;96784.13701424027;;;16.294728007934694;52.46494239719234
71642;BME280;60657;50.122;14.468;2023-04-01T12:55:27;96775.5313581968;;;16.252002746623944;51.576104371709775
71642;BME280;60657;50.122;14.468;2023-04-01T12:58:48;96773.5431694502;;;16.54573891813535;51.60852979324025
71642;BME280;60657;50.122;14.468;2023-04-01T13:02:18;96780.34018088336;;;16.34813458457313;51.27473868925002
71642;BME280;60657;50.122;14.468;2023-04-01T13:05:37;96787.07001535056;;;16.025024795910582;52.23224231326772
71642;BME280;60657;50.122;14.468;2023-04-01T13:09:11;96787.8137678972;;;16.089112687876707;52.64232852674144
71642;BME280;60657;50.122;14.468;2023-04-01T13:12:44;96783.46423170967;;;16.18791485465782;52.29137102311742
71642;BME280;60657;50.122;14.468;2023-04-01T13:16:05;96782.18745818465;;;16.041046768902113;52.333333333333336
71642;BME280;60657;50.122;14.468;2023-04-01T13:19:21;96789.66538560687;;;15.442893110551616;53.153505760280765
71642;BME280;60657;50.122;14.468;2023-04-01T13:22:42;96787.90371187075;;;15.608453498130771;53.54833295185779
71642;BME280;60657;50.122;14.468;2023-04-01T13:26:01;96782.5775868252;;;15.274662394140535;54.198748760204474
71642;BME280;60657;50.122;14.468;2023-04-01T13:29:18;96784.85330721672;;;15.165178912031742;54.98458838788434
71642;BME280;60657;50.122;14.468;2023-04-01T13:32:29;96794.13232844733;;;15.114442664225223;55.77805752651255
71642;BME280;60657;50.122;14.468;2023-04-01T13:35:50;96799.02921831085;;;14.908827344167236;55.69413290608072
71642;BME280;60657;50.122;14.468;2023-04-01T13:39:12;96788.61783577294;;;14.564354924849319;56.93011367971313
71642;BME280;60657;50.122;14.468;2023-04-01T13:42:33;96799.24613390527;;;14.398794537270163;56.70695048447394
71642;BME280;60657;50.122;14.468;2023-04-01T13:45:54;96792.93617010915;;;14.6231021591516;56.71076523994812
71642;BME280;60657;50.122;14.468;2023-04-01T13:49:19;96790.50612837909;;;14.826047150377661;55.89440756847486
71642;BME280;60657;50.122;14.468;2023-04-01T13:52:50;96786.68516848792;;;14.935530632486454;55.879148546578165
71642;BME280;60657;50.122;14.468;2023-04-01T13:56:14;96781.35903959203;;;14.7085526817731;55.12954909590295
71642;BME280;60657;50.122;14.468;2023-04-01T13:59:36;96785.2363302765;;;14.6231021591516;56.27779049362936
71642;BME280;60657;50.122;14.468;2023-04-01T14:03:19;96780.54449261886;;;14.794003204394599;56.23773556115053
71642;BME280;60657;50.122;14.468;2023-04-01T14:06:35;96793.99439370768;;;14.340047302967882;57.28297856107424
71642;BME280;60657;50.122;14.468;2023-04-01T14:09:59;96794.71645102555;;;14.270618753337914;58.06309605554284
71642;BME280;60657;50.122;14.468;2023-04-01T14:13:18;96796.80154603413;;;14.390783550774394;57.15709163042649
71642;BME280;60657;50.122;14.468;2023-04-01T14:16:54;96794.01596055887;;;15.04768444342718;56.52956435492485
71642;BME280;60657;50.122;14.468;2023-04-01T14:20:40;96792.11558601218;;;15.846112764171814;55.058976119630735
71642;BME280;60657;50.122;14.468;2023-04-01T14:24:00;96783.09374006404;;;15.69390402075227;53.7524223697261
71642;BME280;60657;50.122;14.468;2023-04-01T14:27:25;96785.96481916588;;;15.085069047074086;55.253528648813614
71642;BME280;60657;50.122;14.468;2023-04-01T14:30:47;96788.62254901917;;;14.78599221789883;55.67505912870985
71642;BME280;60657;50.122;14.468;2023-04-01T14:34:06;96801.53021370585;;;14.649805447470818;56.32547493705653
71642;BME280;60657;50.122;14.468;2023-04-01T14:37:35;96790.56823270896;;;14.802014190890361;56.25108720531014
71642;BME280;60657;50.122;14.468;2023-04-01T14:41:11;96794.72796946455;;;13.950179293507283;59.82551308461127
71642;BME280;60657;50.122;14.468;2023-04-01T14:44:31;96807.57543805236;;;13.648432135500116;61.284657053482874
71642;BME280;60657;50.122;14.468;2023-04-01T20:32:18;97119.81807818101;;;10.970092317082475;77.37911039902342
71642;BME280;60657;50.122;14.468;2023-04-01T20:35:46;97120.57158042544;;;10.951400015259019;77.39246204318303
71642;BME280;60657;50.122;14.468;2023-04-01T20:40:05;97122.2766876347;;;10.978103303578237;77.5145342183566
71642;BME280;60657;50.122;14.468;2023-04-01T20:43:33;97123.91577921373;;;10.962081330586706;77.71671625848784
71642;BME280;60657;50.122;14.468;2023-04-01T20:46:56;97116.70333495675;;;10.836575875486382;78.18020904859999
71642;BME280;60657;50.122;14.468;2023-04-01T20:50:19;97115.88377557113;;;10.892652780956738;78.05050736247807
71642;BME280;60657;50.122;14.468;2023-04-01T20:53:34;97125.22031552289;;;10.735103379873351;78.58266575112535
71642;BME280;60657;50.122;14.468;2023-04-01T20:56:49;97122.72955987808;;;10.764476997024488;78.68566414892805
71642;BME280;60657;50.122;14.468;2023-04-01T21:00:15;97129.44506249388;;;10.756466010528726;78.82871747920959
71642;BME280;60657;50.122;14.468;2023-04-01T21:03:38;97132.06033959976;;;10.665674830243383;79.19111924925612
71642;BME280;60657;50.122;14.468;2023-04-01T21:06:59;97130.42074714087;;;10.703059433890289;79.15678644998856
71642;BME280;60657;50.122;14.468;2023-04-01T21:10:23;97134.488694528;;;10.740444037537195;78.96032654306859
71642;BME280;60657;50.122;14.468;2023-04-01T21:13:45;97127.93039684086;;;10.668345159075301;78.99084458686198
71642;BME280;60657;50.122;14.468;2023-04-01T21:17:05;97138.61885877082;;;10.76180666819257;78.73525597009231
71642;BME280;60657;50.122;14.468;2023-04-01T21:20:20;97141.17125335993;;;10.63363088426032;78.7657740138857
71642;BME280;60657;50.122;14.468;2023-04-01T21:23:47;97140.32051896858;;;10.745784695201039;78.71427481498436
71642;BME280;60657;50.122;14.468;2023-04-01T21:27:12;97149.27696185562;;;10.831235217822538;78.3709468223087
71642;BME280;60657;50.122;14.468;2023-04-01T21:30:34;97150.15905173292;;;10.793850614175632;78.56931410696575
71642;BME280;60657;50.122;14.468;2023-04-01T21:34:04;97153.34513076974;;;10.828564888990613;78.34805828946365
71642;BME280;60657;50.122;14.468;2023-04-01T21:37:44;97155.92948361686;;;10.79652094300755;78.29274433508812
71642;BME280;60657;50.122;14.468;2023-04-01T21:41:19;97158.23311635204;;;10.852597848477913;78.26794842450599
71642;BME280;60657;50.122;14.468;2023-04-01T21:44:46;97159.84141341413;;;10.914015411612112;78.04287785152972
71642;BME280;60657;50.122;14.468;2023-04-01T21:48:41;97160.75562402167;;;10.865949492637519;78.1191729610132
71642;BME280;60657;50.122;14.468;2023-04-01T21:54:20;97157.50716061133;;;10.823224231326769;78.04097047379263
71642;BME280;60657;50.122;14.468;2023-04-01T21:58:07;97161.76191672117;;;10.793850614175632;78.37476157778286
71642;BME280;60657;50.122;14.468;2023-04-01T22:01:36;97172.66670732033;;;10.732433051041426;78.60936903944457
71642;BME280;60657;50.122;14.468;2023-04-01T22:05:10;97170.32654704375;;;10.665674830243383;78.74479285877776
71642;BME280;60657;50.122;14.468;2023-04-01T22:09:00;97171.08676081648;;;10.69504844739452;78.61890592813
71642;BME280;60657;50.122;14.468;2023-04-01T22:12:17;97181.13745387226;;;10.63363088426032;78.85732814526588
71642;BME280;60657;50.122;14.468;2023-04-01T22:15:44;97176.0075464535;;;10.740444037537195;78.75814450293736
71642;BME280;60657;50.122;14.468;2023-04-01T22:19:04;97180.19835618002;;;10.708400091554132;78.75432974746319
71642;BME280;60657;50.122;14.468;2023-04-01T22:22:21;97176.76729983544;;;10.745784695201039;78.6646829938201
71642;BME280;60657;50.122;14.468;2023-04-01T22:25:36;97176.88773878901;;;10.705729762722207;78.92599374380102
71642;BME280;60657;50.122;14.468;2023-04-01T22:28:50;97189.22064860232;;;10.767147325856413;78.81536583504997
71642;BME280;60657;50.122;14.468;2023-04-01T22:32:05;97183.3284419476;;;10.793850614175632;78.61127641718166
71642;BME280;60657;50.122;14.468;2023-04-01T22:35:22;97183.62769377188;;;10.67635614557107;79.27695124742505
71642;BME280;60657;50.122;14.468;2023-04-01T22:38:41;97190.07083392853;;;10.729762722209507;78.88975356679637
71642;BME280;60657;50.122;14.468;2023-04-01T22:42:04;97186.72997456849;;;10.751125352864882;78.72571908140688
71642;BME280;60657;50.122;14.468;2023-04-01T22:45:29;97186.7898970345;;;10.764476997024488;79.04997329671168
71642;BME280;60657;50.122;14.468;2023-04-01T22:48:51;97190.67953509452;;;10.8392462043183;78.55596246280614
71642;BME280;60657;50.122;14.468;2023-04-01T22:52:08;97188.21900517808;;;10.836575875486382;78.57122148470283
71642;BME280;60657;50.122;14.468;2023-04-01T22:55:25;97193.29176373738;;;10.823224231326769;78.70283054856183
71642;BME280;60657;50.122;14.468;2023-04-01T22:58:37;97185.60510959427;;;10.930037384603644;78.37857633325704
71642;BME280;60657;50.122;14.468;2023-04-01T23:01:51;97189.67474761356;;;10.951400015259019;78.1630426489662
71642;BME280;60657;50.122;14.468;2023-04-01T23:05:03;97189.88982286236;;;10.841916533150226;78.61699855039292
71642;BME280;60657;50.122;14.468;2023-04-01T23:08:52;97197.2411122781;;;10.865949492637519;78.60364690623331
71642;BME280;60657;50.122;14.468;2023-04-01T23:12:08;97203.13489525026;;;10.88998245212482;78.68375677119097
71642;BME280;60657;50.122;14.468;2023-04-01T23:15:18;97198.82015186659;;;10.940718699931331;78.5445181963836
71642;BME280;60657;50.122;14.468;2023-04-01T23:18:25;97209.81779484128;;;10.82055390249485;78.91836423285267
71642;BME280;60657;50.122;14.468;2023-04-01T23:21:40;97207.41645260323;;;10.80453192950332;79.10719462882429
71642;BME280;60657;50.122;14.468;2023-04-01T23:24:53;97210.6081370345;;;10.873960479133288;78.88212405584802
71642;BME280;60657;50.122;14.468;2023-04-01T23:28:17;97221.27292421051;;;10.916685740444038;78.83253223468375
71642;BME280;60657;50.122;14.468;2023-04-01T23:31:36;97218.90180462293;;;10.892652780956738;79.14724956130313
71642;BME280;60657;50.122;14.468;2023-04-01T23:34:46;97226.22552685124;;;10.88998245212482;79.297932402533
71642;BME280;60657;50.122;14.468;2023-04-01T23:37:54;97226.40481247245;;;10.825894560158694;79.77859159227893
71642;BME280;60657;50.122;14.468;2023-04-01T23:41:00;97226.46388935862;;;10.799191271839476;79.77859159227893
71642;BME280;60657;50.122;14.468;2023-04-01T23:44:09;97226.58101593755;;;10.729762722209507;80.18486305027848
71642;BME280;60657;50.122;14.468;2023-04-01T23:47:18;97238.24271329603;;;10.713740749217976;80.45380331120775
71642;BME280;60657;50.122;14.468;2023-04-01T23:50:27;97239.00571808095;;;10.759136339360644;80.16388189517052
71642;BME280;60657;50.122;14.468;2023-04-01T23:53:41;97239.99827870415;;;10.71107042038605;80.59876401922637
71642;BME280;60657;50.122;14.468;2023-04-01T23:56:51;97236.54386188903;;;10.740444037537195;80.44426642252232
